Here is the Quick Look data you requested

The Data originates at the National Weather Service, and is made available here by the UAlbany Department of Atmospheric and Environmental Sciences

Surface Observations

KABE 220551Z 34004KT 10SM -RA SCT110 23/21 A2987 RMK AO2 SLP111 P0003 60058
 T02330206 10283 20228 58012 $=
KAFJ 220556Z AUTO 19004KT 10SM CLR 22/21 A2994 RMK AO2 SLP128 T02220211 10272
 20217 58015=
KAGC 220553Z 16006KT 1SM R28/5500VP6000FT BR VV002 21/21 A2991 RMK AO2 SLP120
 60052 T02110211 10289 20211 58006=
KAOO 220553Z AUTO 27005KT 10SM SCT038 BKN047 BKN060 22/20 A2995 RMK AO2 SLP128
 60003 T02170200 10267 20217 58002=
KAVP 220554Z VRB03KT 10SM OVC042 24/22 A2995 RMK AO2 SLP130 T02440217 10261
 20228 53013 $=
KBFD 220553Z AUTO 30003KT 10SM FEW045 FEW110 19/18 A2996 RMK AO2 SLP123
 T01940183 10244 20183 58014=
KBTP 220556Z AUTO 00000KT 5SM BR CLR 21/21 A2992 RMK AO2 SLP128 6//// T02110206
 10233 20211 56013 PNO $=
KCXY 220556Z AUTO 31004KT 10SM CLR 26/20 A2989 RMK AO2 SLP118 60001 T02560200
 10333 20250 55006=
KDUJ 220553Z AUTO 08005KT 10SM CLR 19/18 A2992 RMK AO2 RAE16 SLP116 P0001 60011
 T01940183 10250 20194 58015=
KDYL 220554Z AUTO 00000KT 10SM -RA FEW075 BKN100 BKN120 23/21 A2987 RMK AO2
 RAB11 SLP106 P0001 60013 T02280211 10328 20228 58003=
KERI 220551Z AUTO 00000KT 10SM BKN070 BKN110 21/18 A2993 RMK AO2 RAB14E32
 SLP130 P0005 60005 T02060178 10250 20206 53000 TSNO=
KFIG 220554Z AUTO 12003KT 10SM SCT110 20/19 A2993 RMK AO2 RAE47 SLP123 P0001
 60010 T02000194 10256 20200 58012=
KFKL 220556Z AUTO 30004KT 1/2SM FG BKN001 20/19 A2994 RMK AO2 RAB04E19 SLP128
 P0000 6//// T02000194 10211 20194 56010=
KGKJ 220553Z AUTO 34003KT 10SM OVC042 19/18 A2995 RMK AO2 SLP129 60004
 T01940178 10244 20183 56006 TSNO=
KIDI 220555Z AUTO 18003KT 9SM FEW024 OVC041 21/21 A2998 RMK A01=
KIPT 220554Z AUTO 00000KT 10SM CLR 24/21 A2986 RMK AO2 RAB16E27 SLP104 P0000
 60000 T02440211 10317 20244 58008=
KJST 220554Z AUTO 20003KT 10SM CLR 21/19 A2998 RMK AO2 SLP135 60002 T02060189
 10250 20206 56004=
KLNS 220553Z AUTO 00000KT 10SM CLR 24/23 A2988 RMK AO2 SLP114 60004 T02440233
 10322 20244 56002=
KMDT 220556Z 00000KT 10SM FEW120 SCT170 OVC220 25/21 A2988 RMK AO2 SLP115 60000
 T02500206 10317 20250 55006=
KMPO 220553Z AUTO 34008KT 10SM SCT100 20/19 A2997 RMK AO2 LTG DSNT E RAE32
 SLP132 P0023 60080 T02000194 10233 20200 50001=
KMUI 220556Z AUTO 28004KT 10SM FEW120 24/22 A2989 RMK AO2 PRESRR SLP120 60015
 T02420215 10322 20242 55012=
KPHL 220554Z 03004KT 10SM FEW120 BKN190 BKN250 27/20 A2988 RMK AO2 SLP116 60000
 T02670200 10339 20267 53009 $=
KPIT 220551Z 00000KT 10SM SCT020 BKN060 OVC170 21/21 A2990 RMK AO2 SLP122 60049
 T02110206 10278 20206 58016 $=
KPNE 220554Z AUTO 06003KT 10SM CLR 26/20 A2988 RMK AO2 SLP117 60001 T02610200
 10344 20261 53007=
KPTW 220554Z AUTO 00000KT 10SM CLR 22/22 A2990 RMK AO2 SLP118 60021 T02220222
 10322 20222 58006=
KRDG 220554Z AUTO 19005KT 10SM CLR 24/23 A2987 RMK AO2 RAE06 SLP116 P0000 60003
 T02390228 10328 20233 55008=
KSEG 220553Z AUTO 00000KT 10SM CLR 23/22 A2987 RMK AO2 SLP109 60013 T02330222
 10300 20228 58010=
KTHV 220553Z AUTO 00000KT 10SM CLR 23/21 A2987 RMK AO2 SLP113 60003 T02330206
 10289 20228 56004=
KUNV 220559Z AUTO 00000KT 10SM SCT080 24/22 A2992 RMK AO2 T02350220=